Athens, Ohio
Current Conditions -  °F | °C
As of 9:35 PM on Friday 21 Nov 2014 (Local Time) from KUNI Reporting Station
Clear Clear  
Wind Chill: 19°   Ceiling: Unl
Heat Index: 19°   Visibility: 10mi
Dew Point: 12°   Wind: 0mph
Humidity: 75%   Direction: NA
Pressure: 30.45"   Gusts: NA
Location:  39.33°N, 82.1°W
Report Text: KUNI 220235Z AUTO 00000KT 10SM CLR M07/M11 A3045 RMK AO2 T10721110
Loading
Personal Weather Stations






























Interactive Weather Map New forecast layout! Learn more

10-Day Weather Forecast

Advertisements
Track Severe Weather on mobile